sensor_id;sensor_type;location;lat;lon;timestamp;P1;durP1;ratioP1;P2;durP2;ratioP2
22814;SDS011;11574;51.058;13.712;2023-05-29T00:00:25;16.20;;;5.57;;
22814;SDS011;11574;51.058;13.712;2023-05-29T00:05:27;7.37;;;4.67;;
22814;SDS011;11574;51.058;13.712;2023-05-29T00:10:31;10.73;;;5.33;;
22814;SDS011;11574;51.058;13.712;2023-05-29T00:15:33;8.03;;;4.70;;
22814;SDS011;11574;51.058;13.712;2023-05-29T00:20:35;8.90;;;4.60;;
22814;SDS011;11574;51.058;13.712;2023-05-29T00:25:39;8.57;;;4.63;;
22814;SDS011;11574;51.058;13.712;2023-05-29T00:30:41;10.27;;;4.40;;
22814;SDS011;11574;51.058;13.712;2023-05-29T00:35:43;7.27;;;4.17;;
22814;SDS011;11574;51.058;13.712;2023-05-29T00:40:47;7.10;;;4.67;;
22814;SDS011;11574;51.058;13.712;2023-05-29T00:45:50;9.47;;;4.60;;
22814;SDS011;11574;51.058;13.712;2023-05-29T00:50:52;11.20;;;5.10;;
22814;SDS011;11574;51.058;13.712;2023-05-29T00:55:56;8.07;;;5.07;;
22814;SDS011;11574;51.058;13.712;2023-05-29T01:00:58;7.63;;;4.60;;
22814;SDS011;11574;51.058;13.712;2023-05-29T01:06:01;6.40;;;4.20;;
22814;SDS011;11574;51.058;13.712;2023-05-29T01:11:07;6.90;;;4.40;;
22814;SDS011;11574;51.058;13.712;2023-05-29T01:16:11;9.30;;;4.90;;
22814;SDS011;11574;51.058;13.712;2023-05-29T01:21:22;9.47;;;4.33;;
22814;SDS011;11574;51.058;13.712;2023-05-29T01:26:36;8.03;;;3.87;;
22814;SDS011;11574;51.058;13.712;2023-05-29T01:31:40;6.30;;;3.80;;
22814;SDS011;11574;51.058;13.712;2023-05-29T01:36:43;7.13;;;3.97;;
22814;SDS011;11574;51.058;13.712;2023-05-29T01:41:49;11.97;;;4.20;;
22814;SDS011;11574;51.058;13.712;2023-05-29T01:46:51;8.60;;;4.63;;
22814;SDS011;11574;51.058;13.712;2023-05-29T01:51:54;8.57;;;4.00;;
22814;SDS011;11574;51.058;13.712;2023-05-29T01:56:57;9.80;;;4.30;;
22814;SDS011;11574;51.058;13.712;2023-05-29T02:02:05;7.20;;;3.90;;
22814;SDS011;11574;51.058;13.712;2023-05-29T02:07:07;10.03;;;4.07;;
22814;SDS011;11574;51.058;13.712;2023-05-29T02:12:11;7.33;;;4.03;;
22814;SDS011;11574;51.058;13.712;2023-05-29T02:17:13;5.73;;;3.87;;
22814;SDS011;11574;51.058;13.712;2023-05-29T02:22:17;8.10;;;4.40;;
22814;SDS011;11574;51.058;13.712;2023-05-29T02:27:20;7.33;;;3.47;;
22814;SDS011;11574;51.058;13.712;2023-05-29T02:32:22;9.33;;;4.13;;
22814;SDS011;11574;51.058;13.712;2023-05-29T02:37:26;9.30;;;3.80;;
22814;SDS011;11574;51.058;13.712;2023-05-29T02:42:29;6.77;;;3.80;;
22814;SDS011;11574;51.058;13.712;2023-05-29T02:47:32;7.10;;;3.93;;
22814;SDS011;11574;51.058;13.712;2023-05-29T02:52:34;7.73;;;4.07;;
22814;SDS011;11574;51.058;13.712;2023-05-29T02:57:38;8.30;;;4.83;;
22814;SDS011;11574;51.058;13.712;2023-05-29T03:02:41;6.43;;;3.80;;
22814;SDS011;11574;51.058;13.712;2023-05-29T03:07:43;7.20;;;3.77;;
22814;SDS011;11574;51.058;13.712;2023-05-29T03:12:47;8.23;;;4.13;;
22814;SDS011;11574;51.058;13.712;2023-05-29T03:17:49;10.47;;;4.93;;
22814;SDS011;11574;51.058;13.712;2023-05-29T03:22:51;8.37;;;4.63;;
22814;SDS011;11574;51.058;13.712;2023-05-29T03:27:55;7.63;;;4.53;;
22814;SDS011;11574;51.058;13.712;2023-05-29T03:32:57;6.60;;;4.23;;
22814;SDS011;11574;51.058;13.712;2023-05-29T03:38:03;7.83;;;4.47;;
22814;SDS011;11574;51.058;13.712;2023-05-29T03:43:06;7.80;;;4.47;;
22814;SDS011;11574;51.058;13.712;2023-05-29T03:48:09;7.37;;;4.40;;
22814;SDS011;11574;51.058;13.712;2023-05-29T03:53:11;8.83;;;4.40;;
22814;SDS011;11574;51.058;13.712;2023-05-29T03:58:14;8.50;;;4.47;;
22814;SDS011;11574;51.058;13.712;2023-05-29T04:03:17;6.20;;;3.90;;
22814;SDS011;11574;51.058;13.712;2023-05-29T04:08:19;6.00;;;3.90;;
22814;SDS011;11574;51.058;13.712;2023-05-29T04:13:23;7.23;;;4.37;;
22814;SDS011;11574;51.058;13.712;2023-05-29T04:18:25;8.60;;;4.20;;
22814;SDS011;11574;51.058;13.712;2023-05-29T04:23:28;7.67;;;4.37;;
22814;SDS011;11574;51.058;13.712;2023-05-29T04:28:33;8.50;;;4.27;;
22814;SDS011;11574;51.058;13.712;2023-05-29T04:33:37;9.43;;;4.73;;
22814;SDS011;11574;51.058;13.712;2023-05-29T04:38:39;9.88;;;5.07;;
22814;SDS011;11574;51.058;13.712;2023-05-29T04:43:43;6.17;;;4.57;;
22814;SDS011;11574;51.058;13.712;2023-05-29T04:48:45;6.00;;;4.60;;
22814;SDS011;11574;51.058;13.712;2023-05-29T04:53:48;8.40;;;5.30;;
22814;SDS011;11574;51.058;13.712;2023-05-29T04:58:52;6.25;;;4.30;;
22814;SDS011;11574;51.058;13.712;2023-05-29T05:03:55;6.85;;;4.60;;
22814;SDS011;11574;51.058;13.712;2023-05-29T05:08:57;6.68;;;4.10;;
22814;SDS011;11574;51.058;13.712;2023-05-29T05:14:01;11.05;;;4.57;;
22814;SDS011;11574;51.058;13.712;2023-05-29T05:19:03;7.93;;;5.22;;
22814;SDS011;11574;51.058;13.712;2023-05-29T05:24:05;8.25;;;5.07;;
22814;SDS011;11574;51.058;13.712;2023-05-29T05:29:09;5.20;;;3.75;;
22814;SDS011;11574;51.058;13.712;2023-05-29T05:34:11;6.97;;;4.28;;
22814;SDS011;11574;51.058;13.712;2023-05-29T05:39:13;7.88;;;4.00;;
22814;SDS011;11574;51.058;13.712;2023-05-29T05:44:17;8.38;;;4.07;;
22814;SDS011;11574;51.058;13.712;2023-05-29T05:49:19;6.45;;;4.03;;
22814;SDS011;11574;51.058;13.712;2023-05-29T05:54:21;6.55;;;4.57;;
22814;SDS011;11574;51.058;13.712;2023-05-29T05:59:25;8.73;;;4.50;;
22814;SDS011;11574;51.058;13.712;2023-05-29T06:04:27;5.85;;;4.10;;
22814;SDS011;11574;51.058;13.712;2023-05-29T06:09:29;8.95;;;4.85;;
22814;SDS011;11574;51.058;13.712;2023-05-29T06:14:33;6.00;;;4.57;;
22814;SDS011;11574;51.058;13.712;2023-05-29T06:19:35;7.97;;;5.05;;
22814;SDS011;11574;51.058;13.712;2023-05-29T06:24:37;9.50;;;4.57;;
22814;SDS011;11574;51.058;13.712;2023-05-29T06:29:40;8.27;;;4.35;;
22814;SDS011;11574;51.058;13.712;2023-05-29T06:34:43;7.97;;;5.13;;
22814;SDS011;11574;51.058;13.712;2023-05-29T06:39:45;7.43;;;4.63;;
22814;SDS011;11574;51.058;13.712;2023-05-29T06:44:49;8.57;;;4.60;;
22814;SDS011;11574;51.058;13.712;2023-05-29T06:49:51;8.57;;;4.30;;
22814;SDS011;11574;51.058;13.712;2023-05-29T06:54:53;7.13;;;4.90;;
22814;SDS011;11574;51.058;13.712;2023-05-29T06:59:58;6.57;;;4.50;;
22814;SDS011;11574;51.058;13.712;2023-05-29T07:05:00;7.72;;;5.05;;
22814;SDS011;11574;51.058;13.712;2023-05-29T07:10:02;7.20;;;4.32;;
22814;SDS011;11574;51.058;13.712;2023-05-29T07:15:08;7.50;;;4.63;;
22814;SDS011;11574;51.058;13.712;2023-05-29T07:20:10;6.72;;;4.60;;
22814;SDS011;11574;51.058;13.712;2023-05-29T07:25:15;9.68;;;4.45;;
22814;SDS011;11574;51.058;13.712;2023-05-29T07:30:18;5.43;;;3.97;;
22814;SDS011;11574;51.058;13.712;2023-05-29T07:35:20;6.80;;;3.95;;
22814;SDS011;11574;51.058;13.712;2023-05-29T07:40:22;8.07;;;5.07;;
22814;SDS011;11574;51.058;13.712;2023-05-29T07:45:26;6.93;;;4.68;;
22814;SDS011;11574;51.058;13.712;2023-05-29T07:50:28;7.25;;;4.07;;
22814;SDS011;11574;51.058;13.712;2023-05-29T07:55:31;6.60;;;4.53;;
22814;SDS011;11574;51.058;13.712;2023-05-29T08:00:34;11.88;;;4.68;;
22814;SDS011;11574;51.058;13.712;2023-05-29T08:05:37;5.38;;;3.70;;
22814;SDS011;11574;51.058;13.712;2023-05-29T08:10:40;6.07;;;4.00;;
22814;SDS011;11574;51.058;13.712;2023-05-29T08:15:43;8.13;;;3.85;;
22814;SDS011;11574;51.058;13.712;2023-05-29T08:20:47;5.75;;;4.20;;
22814;SDS011;11574;51.058;13.712;2023-05-29T08:25:49;7.45;;;3.45;;
22814;SDS011;11574;51.058;13.712;2023-05-29T08:30:53;6.03;;;4.50;;
22814;SDS011;11574;51.058;13.712;2023-05-29T08:35:56;7.93;;;4.05;;
22814;SDS011;11574;51.058;13.712;2023-05-29T08:40:59;5.03;;;2.83;;
22814;SDS011;11574;51.058;13.712;2023-05-29T08:46:02;5.20;;;3.40;;
22814;SDS011;11574;51.058;13.712;2023-05-29T08:51:05;4.10;;;2.83;;
22814;SDS011;11574;51.058;13.712;2023-05-29T08:56:09;3.78;;;2.58;;
22814;SDS011;11574;51.058;13.712;2023-05-29T09:01:13;5.78;;;3.03;;
22814;SDS011;11574;51.058;13.712;2023-05-29T09:06:16;4.18;;;2.80;;
22814;SDS011;11574;51.058;13.712;2023-05-29T09:11:18;5.97;;;3.20;;
22814;SDS011;11574;51.058;13.712;2023-05-29T09:16:23;12.18;;;7.65;;
22814;SDS011;11574;51.058;13.712;2023-05-29T09:21:26;6.15;;;3.03;;
22814;SDS011;11574;51.058;13.712;2023-05-29T09:26:29;3.72;;;2.53;;
22814;SDS011;11574;51.058;13.712;2023-05-29T09:31:35;6.55;;;2.78;;
22814;SDS011;11574;51.058;13.712;2023-05-29T09:36:38;9.10;;;3.25;;
22814;SDS011;11574;51.058;13.712;2023-05-29T09:41:41;4.85;;;2.85;;
22814;SDS011;11574;51.058;13.712;2023-05-29T09:46:45;7.63;;;2.50;;
22814;SDS011;11574;51.058;13.712;2023-05-29T09:51:52;7.60;;;2.90;;
22814;SDS011;11574;51.058;13.712;2023-05-29T09:56:55;8.82;;;3.42;;
22814;SDS011;11574;51.058;13.712;2023-05-29T10:02:00;5.82;;;2.70;;
22814;SDS011;11574;51.058;13.712;2023-05-29T10:07:04;3.72;;;2.30;;
22814;SDS011;11574;51.058;13.712;2023-05-29T10:12:08;5.05;;;2.90;;
22814;SDS011;11574;51.058;13.712;2023-05-29T10:17:15;6.43;;;3.20;;
22814;SDS011;11574;51.058;13.712;2023-05-29T10:22:20;7.55;;;2.83;;
22814;SDS011;11574;51.058;13.712;2023-05-29T10:27:25;6.85;;;2.67;;
22814;SDS011;11574;51.058;13.712;2023-05-29T10:32:32;7.78;;;2.67;;
22814;SDS011;11574;51.058;13.712;2023-05-29T10:37:39;8.70;;;2.78;;
22814;SDS011;11574;51.058;13.712;2023-05-29T10:42:43;5.93;;;2.90;;
22814;SDS011;11574;51.058;13.712;2023-05-29T10:47:47;8.50;;;2.35;;
22814;SDS011;11574;51.058;13.712;2023-05-29T10:52:49;5.22;;;2.78;;
22814;SDS011;11574;51.058;13.712;2023-05-29T10:57:51;7.90;;;3.30;;
22814;SDS011;11574;51.058;13.712;2023-05-29T11:02:55;5.22;;;2.80;;
22814;SDS011;11574;51.058;13.712;2023-05-29T11:07:58;9.23;;;2.60;;
22814;SDS011;11574;51.058;13.712;2023-05-29T11:13:01;5.47;;;2.58;;
22814;SDS011;11574;51.058;13.712;2023-05-29T11:18:09;7.97;;;2.60;;
22814;SDS011;11574;51.058;13.712;2023-05-29T11:23:15;5.53;;;2.90;;
22814;SDS011;11574;51.058;13.712;2023-05-29T11:28:18;4.82;;;2.70;;
22814;SDS011;11574;51.058;13.712;2023-05-29T11:33:25;6.50;;;2.60;;
22814;SDS011;11574;51.058;13.712;2023-05-29T11:38:28;5.78;;;2.35;;
22814;SDS011;11574;51.058;13.712;2023-05-29T11:43:31;6.15;;;2.85;;
22814;SDS011;11574;51.058;13.712;2023-05-29T11:48:35;5.68;;;3.15;;
22814;SDS011;11574;51.058;13.712;2023-05-29T11:53:46;5.72;;;2.55;;
22814;SDS011;11574;51.058;13.712;2023-05-29T11:58:48;5.75;;;2.40;;
22814;SDS011;11574;51.058;13.712;2023-05-29T12:03:52;7.97;;;3.30;;
22814;SDS011;11574;51.058;13.712;2023-05-29T12:08:55;7.57;;;2.47;;
22814;SDS011;11574;51.058;13.712;2023-05-29T12:13:57;5.50;;;2.42;;
22814;SDS011;11574;51.058;13.712;2023-05-29T12:19:02;6.40;;;2.95;;
22814;SDS011;11574;51.058;13.712;2023-05-29T12:24:04;8.73;;;2.80;;
22814;SDS011;11574;51.058;13.712;2023-05-29T12:29:07;5.47;;;2.50;;
22814;SDS011;11574;51.058;13.712;2023-05-29T12:34:11;6.60;;;2.78;;
22814;SDS011;11574;51.058;13.712;2023-05-29T12:39:15;6.28;;;2.88;;
22814;SDS011;11574;51.058;13.712;2023-05-29T12:44:18;9.18;;;2.55;;
22814;SDS011;11574;51.058;13.712;2023-05-29T12:49:21;3.25;;;2.38;;
22814;SDS011;11574;51.058;13.712;2023-05-29T12:54:26;4.32;;;2.67;;
22814;SDS011;11574;51.058;13.712;2023-05-29T12:59:29;4.97;;;2.50;;
22814;SDS011;11574;51.058;13.712;2023-05-29T13:04:33;3.72;;;2.53;;
22814;SDS011;11574;51.058;13.712;2023-05-29T13:09:35;5.40;;;2.38;;
22814;SDS011;11574;51.058;13.712;2023-05-29T13:14:37;6.82;;;2.50;;
22814;SDS011;11574;51.058;13.712;2023-05-29T13:19:42;7.85;;;2.70;;
22814;SDS011;11574;51.058;13.712;2023-05-29T13:24:44;5.97;;;2.67;;
22814;SDS011;11574;51.058;13.712;2023-05-29T13:29:47;4.85;;;2.60;;
22814;SDS011;11574;51.058;13.712;2023-05-29T13:34:52;6.25;;;2.55;;
22814;SDS011;11574;51.058;13.712;2023-05-29T13:39:57;9.40;;;2.80;;
22814;SDS011;11574;51.058;13.712;2023-05-29T13:45:00;8.35;;;3.10;;
22814;SDS011;11574;51.058;13.712;2023-05-29T13:50:04;5.88;;;2.88;;
22814;SDS011;11574;51.058;13.712;2023-05-29T13:55:07;4.03;;;2.55;;
22814;SDS011;11574;51.058;13.712;2023-05-29T14:00:10;6.78;;;2.90;;
22814;SDS011;11574;51.058;13.712;2023-05-29T14:05:14;8.80;;;2.95;;
22814;SDS011;11574;51.058;13.712;2023-05-29T14:10:16;6.95;;;3.22;;
22814;SDS011;11574;51.058;13.712;2023-05-29T14:15:18;7.05;;;3.47;;
22814;SDS011;11574;51.058;13.712;2023-05-29T14:20:22;4.45;;;2.92;;
22814;SDS011;11574;51.058;13.712;2023-05-29T14:25:24;5.13;;;3.15;;
22814;SDS011;11574;51.058;13.712;2023-05-29T14:30:26;5.53;;;2.90;;
22814;SDS011;11574;51.058;13.712;2023-05-29T14:35:30;4.47;;;2.65;;
22814;SDS011;11574;51.058;13.712;2023-05-29T14:40:33;7.45;;;3.30;;
22814;SDS011;11574;51.058;13.712;2023-05-29T14:45:35;5.45;;;3.60;;
22814;SDS011;11574;51.058;13.712;2023-05-29T14:50:39;4.05;;;2.55;;
22814;SDS011;11574;51.058;13.712;2023-05-29T14:55:42;7.57;;;3.58;;
22814;SDS011;11574;51.058;13.712;2023-05-29T15:00:45;6.65;;;3.25;;
22814;SDS011;11574;51.058;13.712;2023-05-29T15:05:49;4.65;;;3.30;;
22814;SDS011;11574;51.058;13.712;2023-05-29T15:10:51;5.00;;;3.03;;
22814;SDS011;11574;51.058;13.712;2023-05-29T15:15:54;8.13;;;3.33;;
22814;SDS011;11574;51.058;13.712;2023-05-29T15:21:00;8.50;;;3.33;;
22814;SDS011;11574;51.058;13.712;2023-05-29T15:26:04;8.68;;;4.10;;
22814;SDS011;11574;51.058;13.712;2023-05-29T15:31:06;9.35;;;3.65;;
22814;SDS011;11574;51.058;13.712;2023-05-29T15:36:10;4.38;;;2.90;;
22814;SDS011;11574;51.058;13.712;2023-05-29T15:41:12;8.55;;;4.70;;
22814;SDS011;11574;51.058;13.712;2023-05-29T15:46:15;10.13;;;6.35;;
22814;SDS011;11574;51.058;13.712;2023-05-29T15:51:19;10.25;;;5.90;;
22814;SDS011;11574;51.058;13.712;2023-05-29T15:56:21;9.57;;;5.38;;
22814;SDS011;11574;51.058;13.712;2023-05-29T16:01:27;7.32;;;4.22;;
22814;SDS011;11574;51.058;13.712;2023-05-29T16:06:32;5.68;;;3.67;;
22814;SDS011;11574;51.058;13.712;2023-05-29T16:11:36;7.45;;;3.33;;
22814;SDS011;11574;51.058;13.712;2023-05-29T16:16:39;6.75;;;4.22;;
22814;SDS011;11574;51.058;13.712;2023-05-29T16:21:45;8.55;;;3.20;;
22814;SDS011;11574;51.058;13.712;2023-05-29T16:26:47;7.75;;;3.20;;
22814;SDS011;11574;51.058;13.712;2023-05-29T16:31:49;4.78;;;3.30;;
22814;SDS011;11574;51.058;13.712;2023-05-29T16:36:53;6.60;;;3.33;;
22814;SDS011;11574;51.058;13.712;2023-05-29T16:41:55;7.10;;;3.17;;
22814;SDS011;11574;51.058;13.712;2023-05-29T16:46:58;6.05;;;3.15;;
22814;SDS011;11574;51.058;13.712;2023-05-29T16:52:02;7.78;;;3.45;;
22814;SDS011;11574;51.058;13.712;2023-05-29T16:57:06;6.32;;;3.60;;
22814;SDS011;11574;51.058;13.712;2023-05-29T17:02:09;5.60;;;3.03;;
22814;SDS011;11574;51.058;13.712;2023-05-29T17:07:13;6.87;;;3.10;;
22814;SDS011;11574;51.058;13.712;2023-05-29T17:12:16;6.50;;;3.00;;
22814;SDS011;11574;51.058;13.712;2023-05-29T17:17:18;7.83;;;2.70;;
22814;SDS011;11574;51.058;13.712;2023-05-29T17:22:21;6.73;;;3.07;;
22814;SDS011;11574;51.058;13.712;2023-05-29T17:27:24;5.47;;;3.00;;
22814;SDS011;11574;51.058;13.712;2023-05-29T17:32:26;8.37;;;2.90;;
22814;SDS011;11574;51.058;13.712;2023-05-29T17:37:31;6.33;;;2.87;;
22814;SDS011;11574;51.058;13.712;2023-05-29T17:42:34;7.13;;;2.97;;
22814;SDS011;11574;51.058;13.712;2023-05-29T17:47:36;7.60;;;3.00;;
22814;SDS011;11574;51.058;13.712;2023-05-29T17:52:39;6.73;;;3.10;;
22814;SDS011;11574;51.058;13.712;2023-05-29T17:57:42;7.97;;;3.33;;
22814;SDS011;11574;51.058;13.712;2023-05-29T18:02:44;5.13;;;3.13;;
22814;SDS011;11574;51.058;13.712;2023-05-29T18:07:48;4.53;;;2.87;;
22814;SDS011;11574;51.058;13.712;2023-05-29T18:12:51;6.80;;;3.23;;
22814;SDS011;11574;51.058;13.712;2023-05-29T18:17:53;5.87;;;2.47;;
22814;SDS011;11574;51.058;13.712;2023-05-29T18:22:59;7.17;;;3.53;;
22814;SDS011;11574;51.058;13.712;2023-05-29T18:28:01;4.97;;;3.20;;
22814;SDS011;11574;51.058;13.712;2023-05-29T18:33:03;5.43;;;2.80;;
22814;SDS011;11574;51.058;13.712;2023-05-29T18:38:08;9.70;;;2.87;;
22814;SDS011;11574;51.058;13.712;2023-05-29T18:43:12;5.83;;;3.03;;
22814;SDS011;11574;51.058;13.712;2023-05-29T18:48:15;7.10;;;3.07;;
22814;SDS011;11574;51.058;13.712;2023-05-29T18:53:23;5.27;;;3.23;;
22814;SDS011;11574;51.058;13.712;2023-05-29T18:58:26;10.53;;;4.33;;
22814;SDS011;11574;51.058;13.712;2023-05-29T19:03:28;6.40;;;3.90;;
22814;SDS011;11574;51.058;13.712;2023-05-29T19:08:32;7.13;;;3.37;;
22814;SDS011;11574;51.058;13.712;2023-05-29T19:13:34;5.90;;;3.00;;
22814;SDS011;11574;51.058;13.712;2023-05-29T19:18:36;8.43;;;3.20;;
22814;SDS011;11574;51.058;13.712;2023-05-29T19:23:40;9.00;;;3.77;;
22814;SDS011;11574;51.058;13.712;2023-05-29T19:28:42;5.67;;;3.60;;
22814;SDS011;11574;51.058;13.712;2023-05-29T19:33:44;8.83;;;3.70;;
22814;SDS011;11574;51.058;13.712;2023-05-29T19:38:48;6.13;;;3.60;;
22814;SDS011;11574;51.058;13.712;2023-05-29T19:43:51;7.10;;;3.47;;
22814;SDS011;11574;51.058;13.712;2023-05-29T19:48:53;9.07;;;3.57;;
22814;SDS011;11574;51.058;13.712;2023-05-29T19:53:57;9.03;;;4.07;;
22814;SDS011;11574;51.058;13.712;2023-05-29T19:58:59;9.00;;;3.50;;
22814;SDS011;11574;51.058;13.712;2023-05-29T20:04:02;10.37;;;3.90;;
22814;SDS011;11574;51.058;13.712;2023-05-29T20:09:05;7.73;;;3.67;;
22814;SDS011;11574;51.058;13.712;2023-05-29T20:14:09;9.40;;;3.20;;
22814;SDS011;11574;51.058;13.712;2023-05-29T20:19:15;5.57;;;3.30;;
22814;SDS011;11574;51.058;13.712;2023-05-29T20:24:19;5.33;;;3.53;;
22814;SDS011;11574;51.058;13.712;2023-05-29T20:29:22;10.57;;;3.80;;
22814;SDS011;11574;51.058;13.712;2023-05-29T20:34:24;6.60;;;3.60;;
22814;SDS011;11574;51.058;13.712;2023-05-29T20:39:28;10.50;;;5.07;;
22814;SDS011;11574;51.058;13.712;2023-05-29T20:44:34;8.20;;;5.13;;
22814;SDS011;11574;51.058;13.712;2023-05-29T20:49:37;8.90;;;4.47;;
22814;SDS011;11574;51.058;13.712;2023-05-29T20:54:40;8.13;;;4.40;;
22814;SDS011;11574;51.058;13.712;2023-05-29T20:59:42;12.30;;;6.60;;
22814;SDS011;11574;51.058;13.712;2023-05-29T21:04:45;9.90;;;6.23;;
22814;SDS011;11574;51.058;13.712;2023-05-29T21:09:50;8.47;;;3.80;;
22814;SDS011;11574;51.058;13.712;2023-05-29T21:14:52;7.30;;;3.83;;
22814;SDS011;11574;51.058;13.712;2023-05-29T21:19:54;11.17;;;4.10;;
22814;SDS011;11574;51.058;13.712;2023-05-29T21:25:02;10.33;;;4.30;;
22814;SDS011;11574;51.058;13.712;2023-05-29T21:30:05;9.80;;;3.60;;
22814;SDS011;11574;51.058;13.712;2023-05-29T21:35:07;5.50;;;3.50;;
22814;SDS011;11574;51.058;13.712;2023-05-29T21:40:11;8.30;;;4.70;;
22814;SDS011;11574;51.058;13.712;2023-05-29T21:45:14;5.37;;;2.87;;
22814;SDS011;11574;51.058;13.712;2023-05-29T21:50:16;5.33;;;3.07;;
22814;SDS011;11574;51.058;13.712;2023-05-29T21:55:19;7.97;;;3.00;;
22814;SDS011;11574;51.058;13.712;2023-05-29T22:00:22;5.37;;;3.00;;
22814;SDS011;11574;51.058;13.712;2023-05-29T22:05:25;7.00;;;2.70;;
22814;SDS011;11574;51.058;13.712;2023-05-29T22:10:29;10.07;;;2.57;;
22814;SDS011;11574;51.058;13.712;2023-05-29T22:15:32;5.60;;;2.40;;
22814;SDS011;11574;51.058;13.712;2023-05-29T22:20:34;6.17;;;2.70;;
22814;SDS011;11574;51.058;13.712;2023-05-29T22:25:38;7.93;;;2.60;;
22814;SDS011;11574;51.058;13.712;2023-05-29T22:30:43;5.13;;;2.30;;
22814;SDS011;11574;51.058;13.712;2023-05-29T22:35:46;4.50;;;2.67;;
22814;SDS011;11574;51.058;13.712;2023-05-29T22:40:49;6.30;;;2.57;;
22814;SDS011;11574;51.058;13.712;2023-05-29T22:45:51;5.70;;;2.23;;
22814;SDS011;11574;51.058;13.712;2023-05-29T22:50:54;6.03;;;2.43;;
22814;SDS011;11574;51.058;13.712;2023-05-29T22:55:58;9.87;;;2.40;;
22814;SDS011;11574;51.058;13.712;2023-05-29T23:01:00;8.83;;;2.40;;
22814;SDS011;11574;51.058;13.712;2023-05-29T23:06:02;8.13;;;2.43;;
22814;SDS011;11574;51.058;13.712;2023-05-29T23:11:08;9.97;;;2.47;;
22814;SDS011;11574;51.058;13.712;2023-05-29T23:16:10;5.63;;;2.10;;
22814;SDS011;11574;51.058;13.712;2023-05-29T23:21:12;6.07;;;2.70;;
22814;SDS011;11574;51.058;13.712;2023-05-29T23:26:16;7.53;;;2.50;;
22814;SDS011;11574;51.058;13.712;2023-05-29T23:31:18;8.83;;;2.70;;
22814;SDS011;11574;51.058;13.712;2023-05-29T23:36:20;4.40;;;2.27;;
22814;SDS011;11574;51.058;13.712;2023-05-29T23:41:24;4.33;;;2.40;;
22814;SDS011;11574;51.058;13.712;2023-05-29T23:46:27;6.87;;;2.77;;
22814;SDS011;11574;51.058;13.712;2023-05-29T23:51:30;6.93;;;2.43;;
22814;SDS011;11574;51.058;13.712;2023-05-29T23:56:33;5.73;;;2.23;;
